Time;durP1;ratioP1;P1;durP2;ratioP2;P2;SDS_P1;SDS_P2;PMS_P1;PMS_P2;Temp;Humidity;BMP_temperature;BMP_pressure;BME280_temperature;BME280_humidity;BME280_pressure;Samples;Min_cycle;Max_cycle;Signal;HPM_P1;HPM_P2
2024/02/07 00:00:00;;;;;;;120.88;67.65;;;;;;;12.26;66.46;101060.13;5118064;28;20044;-79
2024/02/07 00:02:53;;;;;;;123.88;68.15;;;;;;;12.29;66.72;101056.75;5105394;28;20040;-79
2024/02/07 00:05:47;;;;;;;126.18;68.47;;;;;;;12.47;66.18;101056.78;5098440;28;20059;-78
2024/02/07 00:08:37;;;;;;;124.43;70.77;;;;;;;12.27;66.69;101059.00;5110556;28;20043;-79
2024/02/07 00:11:29;;;;;;;126.80;68.88;;;;;;;12.16;66.80;101046.78;5116030;28;20274;-79
2024/02/07 00:14:23;;;;;;;126.65;72.82;;;;;;;12.25;66.55;101052.25;5119671;28;20036;-79
2024/02/07 00:17:16;;;;;;;135.07;73.20;;;;;;;12.22;67.24;101050.19;5118653;28;20035;-79
2024/02/07 00:20:10;;;;;;;150.23;71.75;;;;;;;12.30;66.55;101043.94;5100681;28;20039;-80
2024/02/07 00:23:05;;;;;;;126.57;67.43;;;;;;;12.33;66.44;101046.03;5102022;28;20039;-81
2024/02/07 00:26:04;;;;;;;121.82;70.00;;;;;;;12.30;66.50;101042.00;5101122;28;20270;-79
2024/02/07 00:29:00;;;;;;;131.77;68.97;;;;;;;12.28;66.59;101038.00;5094532;28;20764;-78
2024/02/07 00:31:55;;;;;;;123.50;66.50;;;;;;;12.36;66.47;101039.94;5096649;28;20036;-78
2024/02/07 00:34:49;;;;;;;125.13;70.67;;;;;;;12.31;66.56;101032.72;5099865;28;20262;-78
2024/02/07 00:37:44;;;;;;;121.03;66.23;;;;;;;12.31;66.71;101026.44;5099448;28;20036;-80
2024/02/07 00:40:38;;;;;;;117.50;67.27;;;;;;;12.26;66.85;101024.69;5100867;28;20044;-79
2024/02/07 00:43:35;;;;;;;117.60;64.05;;;;;;;12.37;66.69;101031.44;5098737;28;20270;-79
2024/02/07 00:46:27;;;;;;;120.85;66.20;;;;;;;12.41;66.58;101031.59;5100602;28;20481;-79
2024/02/07 00:49:22;;;;;;;117.20;68.68;;;;;;;12.40;66.24;101024.53;5111076;28;20031;-77
2024/02/07 00:52:16;;;;;;;120.03;67.03;;;;;;;12.32;66.45;101015.22;5121658;28;20040;-79
2024/02/07 00:55:11;;;;;;;125.43;65.30;;;;;;;12.32;66.53;101017.97;5121143;28;20039;-79
2024/02/07 00:58:03;;;;;;;99.63;54.95;;;;;;;12.28;66.70;101010.75;5118356;28;20043;-79
2024/02/07 01:00:57;;;;;;;128.15;66.82;;;;;;;12.17;67.13;101012.16;5116532;28;20043;-78
2024/02/07 01:03:52;;;;;;;99.97;54.38;;;;;;;12.18;67.18;101008.31;5114446;28;20044;-78
2024/02/07 01:06:44;;;;;;;128.15;69.53;;;;;;;12.25;67.06;101008.63;5120901;28;20039;-78
2024/02/07 01:09:39;;;;;;;112.53;65.13;;;;;;;12.21;67.31;101004.94;5121144;28;20044;-78
2024/02/07 01:12:33;;;;;;;123.47;68.57;;;;;;;12.19;67.53;101001.75;5113147;28;20040;-79
2024/02/07 01:15:28;;;;;;;127.73;67.87;;;;;;;12.12;67.31;101007.66;5080450;28;20044;-78
2024/02/07 01:18:22;;;;;;;133.13;66.25;;;;;;;12.07;67.45;100999.63;5073874;28;20062;-80
2024/02/07 01:21:17;;;;;;;126.40;67.72;;;;;;;12.02;67.65;101001.72;5080137;28;20044;-80
2024/02/07 01:24:11;;;;;;;127.87;71.07;;;;;;;12.05;67.52;100999.16;5079741;28;20041;-79
2024/02/07 01:27:06;;;;;;;127.10;69.93;;;;;;;12.11;67.24;100997.06;5083219;28;20037;-79
2024/02/07 01:30:02;;;;;;;122.13;66.40;;;;;;;12.11;67.78;100999.78;5116591;28;20035;-79
2024/02/07 01:32:51;;;;;;;;;;;;;;;12.18;66.95;100995.50;5113875;28;20040;-77
2024/02/07 01:35:46;;;;;;;110.68;64.65;;;;;;;12.18;66.72;100992.75;5120184;28;20369;-78
2024/02/07 01:38:40;;;;;;;123.80;67.23;;;;;;;12.10;67.35;100984.56;5115260;28;20028;-79
2024/02/07 01:41:56;;;;;;;120.37;67.00;;;;;;;12.06;67.51;100976.22;5118854;28;20031;-79
2024/02/07 01:44:46;;;;;;;124.75;65.80;;;;;;;12.03;67.64;100970.63;5120302;28;20257;-79
2024/02/07 01:47:41;;;;;;;121.97;68.60;;;;;;;12.11;67.28;100961.63;5112741;28;20036;-79
2024/02/07 01:50:35;;;;;;;118.78;68.32;;;;;;;12.03;67.88;100956.97;5099604;28;20039;-78
2024/02/07 01:53:30;;;;;;;126.50;70.10;;;;;;;12.05;67.93;100952.00;5099640;28;20412;-79
2024/02/07 01:56:25;;;;;;;128.25;65.97;;;;;;;12.04;67.50;100953.91;5099221;28;20397;-79
2024/02/07 01:59:17;;;;;;;104.18;56.72;;;;;;;12.09;67.38;100942.88;5112051;28;20035;-79
2024/02/07 02:02:12;;;;;;;120.95;65.28;;;;;;;12.14;67.43;100939.97;5112494;28;20039;-79
2024/02/07 02:05:04;;;;;;;125.63;67.43;;;;;;;11.98;68.01;100934.22;5096111;28;20040;-81
2024/02/07 02:08:02;;;;;;;122.57;68.32;;;;;;;11.93;68.18;100930.84;5100852;28;20658;-80
2024/02/07 02:11:03;;;;;;;127.35;66.72;;;;;;;12.02;68.03;100930.84;5117852;28;20047;-78
2024/02/07 02:13:58;;;;;;;120.07;66.20;;;;;;;12.00;67.81;100923.78;5114747;28;20531;-79
2024/02/07 02:16:53;;;;;;;127.68;68.80;;;;;;;11.97;67.80;100918.97;5118060;28;20039;-78
2024/02/07 02:19:48;;;;;;;124.87;70.37;;;;;;;11.95;67.71;100926.66;5119242;28;20051;-78
2024/02/07 02:23:02;;;;;;;102.25;56.53;;;;;;;11.87;68.08;100919.28;5109672;28;20044;-79
2024/02/07 02:26:35;;;;;;;122.75;68.97;;;;;;;11.88;68.25;100915.44;5098724;28;20413;-79
2024/02/07 02:29:32;;;;;;;132.00;69.82;;;;;;;11.81;68.73;100909.66;5092197;28;20043;-79
2024/02/07 02:32:23;;;;;;;123.60;67.22;;;;;;;11.83;68.51;100893.81;5100232;28;20591;-78
2024/02/07 02:35:18;;;;;;;120.43;68.63;;;;;;;11.83;68.24;100901.97;5119664;28;20040;-78
2024/02/07 02:38:12;;;;;;;131.60;70.95;;;;;;;11.86;68.46;100904.06;5116904;28;20032;-79
2024/02/07 02:41:08;;;;;;;134.57;69.50;;;;;;;11.87;68.00;100907.59;5119342;28;20035;-81
2024/02/07 02:44:00;;;;;;;123.72;68.07;;;;;;;11.80;68.47;100904.53;5119140;28;20266;-79
2024/02/07 02:46:55;;;;;;;124.43;70.28;;;;;;;11.72;68.95;100902.56;5115106;28;20048;-81
2024/02/07 02:49:49;;;;;;;129.60;71.33;;;;;;;11.76;69.04;100903.56;5112677;28;20043;-80
2024/02/07 02:52:44;;;;;;;125.73;65.83;;;;;;;11.63;69.55;100893.59;5114327;28;20916;-80
2024/02/07 02:55:38;;;;;;;124.20;67.00;;;;;;;11.40;70.35;100895.59;5093504;28;20043;-80
2024/02/07 02:58:33;;;;;;;122.23;67.67;;;;;;;11.45;70.37;100884.56;5093921;28;20928;-80
2024/02/07 03:01:28;;;;;;;105.15;54.53;;;;;;;11.47;70.42;100877.69;5077949;28;20041;-79
2024/02/07 03:04:21;;;;;;;126.53;69.65;;;;;;;11.56;70.04;100873.06;5071871;28;20506;-79
2024/02/07 03:10:17;;;;;;;;;;;;;;;11.40;70.51;100871.09;5085799;28;20504;-80
2024/02/07 03:13:11;;;;;;;125.85;69.13;;;;;;;11.44;70.45;100869.34;5096800;28;19911;-81
2024/02/07 03:16:09;;;;;;;93.67;52.93;;;;;;;11.52;70.27;100863.13;5097582;28;20040;-80
2024/02/07 03:19:03;;;;;;;128.43;69.38;;;;;;;11.52;70.10;100861.19;5091807;28;20033;-79
2024/02/07 03:21:58;;;;;;;101.50;59.90;;;;;;;11.60;70.25;100856.88;5098372;28;20032;-80
2024/02/07 03:24:55;;;;;;;134.30;72.30;;;;;;;11.56;69.74;100861.34;5098366;28;21060;-81
2024/02/07 03:27:53;;;;;;;130.07;68.65;;;;;;;11.58;70.15;100853.66;5096072;28;20044;-81
2024/02/07 03:30:47;;;;;;;128.63;67.85;;;;;;;11.52;69.81;100847.59;5098315;28;20032;-81
2024/02/07 03:33:47;;;;;;;125.45;70.38;;;;;;;11.54;69.60;100848.06;5107026;28;20404;-79
2024/02/07 03:36:41;;;;;;;121.72;69.97;;;;;;;11.67;69.25;100848.25;5115229;28;20048;-78
2024/02/07 03:39:33;;;;;;;92.07;53.07;;;;;;;11.62;69.21;100845.66;5091447;28;20032;-77
2024/02/07 03:42:28;;;;;;;130.50;70.60;;;;;;;11.63;69.19;100839.88;5103733;28;20036;-80
2024/02/07 03:45:23;;;;;;;128.47;71.00;;;;;;;11.53;69.32;100832.03;5122607;28;20044;-80
2024/02/07 03:48:16;;;;;;;126.32;71.70;;;;;;;11.46;69.81;100818.09;5104722;28;20044;-78
2024/02/07 03:51:11;;;;;;;136.45;71.50;;;;;;;11.23;70.33;100827.47;5099418;28;20043;-81
2024/02/07 03:54:10;;;;;;;138.05;74.65;;;;;;;11.11;71.47;100826.19;5114142;28;20040;-79
2024/02/07 03:57:04;;;;;;;128.75;72.25;;;;;;;11.13;71.63;100815.78;5122259;28;20044;-81
2024/02/07 03:59:56;;;;;;;103.13;56.43;;;;;;;11.17;71.42;100818.69;5118434;28;20052;-80
2024/02/07 04:02:54;;;;;;;132.90;73.20;;;;;;;11.27;70.98;100823.03;5115854;28;20036;-81
2024/02/07 04:05:53;;;;;;;131.48;74.47;;;;;;;11.43;70.38;100830.41;5101436;28;20036;-80
2024/02/07 04:08:48;;;;;;;102.20;56.10;;;;;;;11.37;69.82;100820.00;5109559;28;20036;-80
2024/02/07 05:17:35;;;;;;;128.85;69.95;;;;;;;11.55;70.01;100778.03;5107902;28;20036;-79
2024/02/07 05:20:29;;;;;;;139.43;77.17;;;;;;;11.46;70.03;100778.06;5095327;28;20036;-81
2024/02/07 05:23:24;;;;;;;134.17;77.33;;;;;;;11.48;70.33;100780.44;5094901;28;20401;-81
2024/02/07 05:26:17;;;;;;;129.40;73.97;;;;;;;11.44;69.97;100779.47;5092882;28;20040;-79
2024/02/07 05:29:15;;;;;;;127.47;70.23;;;;;;;11.38;70.58;100783.47;5094488;28;20052;-79
2024/02/07 05:32:11;;;;;;;128.63;71.47;;;;;;;11.18;70.91;100778.63;5092793;28;20039;-80
2024/02/07 05:35:02;;;;;;;;;;;;;;;10.89;71.85;100776.50;5093822;28;20409;-79
2024/02/07 05:37:54;;;;;;;138.55;71.60;;;;;;;10.70;73.10;100776.75;5095937;28;19912;-79
2024/02/07 05:40:46;;;;;;;134.07;72.93;;;;;;;10.64;73.26;100778.00;5097392;28;20504;-79
2024/02/07 05:43:41;;;;;;;164.98;86.07;;;;;;;10.51;74.14;100773.47;5099594;28;20040;-78
2024/02/07 05:46:35;;;;;;;134.63;79.43;;;;;;;10.41;75.31;100768.31;5099736;28;20056;-80
2024/02/07 05:49:30;;;;;;;143.93;76.32;;;;;;;10.50;75.36;100767.25;5113490;28;20043;-79
2024/02/07 05:52:25;;;;;;;141.88;79.43;;;;;;;10.77;73.88;100771.66;5120704;28;20408;-81
2024/02/07 05:55:19;;;;;;;157.73;87.20;;;;;;;10.89;73.48;100768.34;5108601;28;20044;-82
2024/02/07 05:58:14;;;;;;;162.73;93.33;;;;;;;10.86;73.20;100761.63;5089822;28;20040;-82
2024/02/07 06:01:05;;;;;;;149.68;80.10;;;;;;;10.82;73.17;100757.91;5100114;28;20405;-81
2024/02/07 06:03:57;;;;;;;112.05;61.22;;;;;;;10.81;73.47;100763.69;5099723;28;20036;-85
2024/02/07 06:06:52;;;;;;;144.30;79.97;;;;;;;10.82;73.35;100763.34;5099951;28;20043;-83
2024/02/07 06:09:47;;;;;;;142.33;78.40;;;;;;;10.92;73.34;100760.31;5100407;28;20497;-82
2024/02/07 06:12:39;;;;;;;108.72;60.13;;;;;;;10.93;73.30;100764.66;5099858;28;20615;-82
2024/02/07 06:15:34;;;;;;;151.50;82.78;;;;;;;11.00;73.11;100756.84;5078876;28;20036;-82
2024/02/07 06:18:29;;;;;;;129.85;65.15;;;;;;;10.87;73.70;100763.19;5074615;28;20490;-82
2024/02/07 06:21:23;;;;;;;122.53;66.17;;;;;;;10.78;73.48;100759.66;5075426;28;20056;-77
2024/02/07 06:24:18;;;;;;;156.18;84.00;;;;;;;10.63;74.40;100766.31;5090023;28;20405;-78
2024/02/07 06:27:12;;;;;;;149.57;82.13;;;;;;;10.70;74.26;100768.59;5096133;28;20032;-77
2024/02/07 06:30:08;;;;;;;146.07;81.50;;;;;;;10.68;74.73;100768.91;5074637;28;20036;-76
2024/02/07 06:32:58;;;;;;;148.15;81.50;;;;;;;10.36;75.90;100768.44;5077999;28;20405;-76
2024/02/07 06:35:53;;;;;;;164.32;84.88;;;;;;;10.08;77.44;100771.28;5095535;28;20052;-84
2024/02/07 06:38:45;;;;;;;167.35;85.20;;;;;;;9.93;78.11;100763.53;5097016;28;20057;-82
2024/02/07 06:41:37;;;;;;;167.75;85.28;;;;;;;9.96;78.82;100768.31;5084044;28;20424;-84
2024/02/07 06:44:30;;;;;;;149.73;83.82;;;;;;;10.08;78.34;100770.50;5113175;28;20036;-84
2024/02/07 06:47:24;;;;;;;150.80;81.30;;;;;;;10.18;77.99;100775.69;5098650;28;20048;-83
2024/02/07 06:50:16;;;;;;;146.93;86.30;;;;;;;10.08;78.46;100760.44;5099646;28;20040;-83
2024/02/07 06:53:11;;;;;;;163.73;85.82;;;;;;;9.95;78.52;100771.38;5099587;28;20408;-84
2024/02/07 06:56:05;;;;;;;114.33;65.17;;;;;;;9.96;78.93;100762.88;5098031;28;20052;-82
2024/02/07 06:59:00;;;;;;;157.77;86.90;;;;;;;10.13;78.66;100767.63;5094155;28;20048;-83
2024/02/07 07:01:55;;;;;;;119.32;64.25;;;;;;;10.15;78.19;100760.00;5108955;28;20036;-84
2024/02/07 07:04:49;;;;;;;152.83;83.77;;;;;;;10.15;78.31;100763.50;5121393;28;20044;-84
2024/02/07 07:07:39;;;;;;;147.00;85.70;;;;;;;9.99;78.96;100770.44;5125358;28;20816;-86
2024/02/07 07:10:34;;;;;;;148.18;82.95;;;;;;;9.59;80.51;100774.94;5121657;28;20040;-85
2024/02/07 07:13:28;;;;;;;157.48;86.85;;;;;;;9.74;81.32;100771.06;5122797;28;20051;-86
2024/02/07 07:16:21;;;;;;;141.63;80.38;;;;;;;9.74;80.25;100771.88;5089897;28;20044;-86
2024/02/07 07:19:15;;;;;;;150.13;82.80;;;;;;;9.85;80.41;100773.19;5095096;28;20039;-83
2024/02/07 07:22:10;;;;;;;120.30;63.30;;;;;;;9.87;79.90;100768.28;5130632;28;20039;-86
2024/02/07 07:25:05;;;;;;;147.48;80.15;;;;;;;9.60;80.90;100765.66;5110646;28;20039;-87
2024/02/07 07:27:59;;;;;;;154.10;85.30;;;;;;;9.68;81.85;100770.38;5117547;28;20420;-84
2024/02/07 07:30:55;;;;;;;125.78;66.32;;;;;;;9.78;82.09;100763.91;5107959;28;20576;-84
2024/02/07 07:33:47;;;;;;;;;;;;;;;9.96;81.07;100762.09;5117440;28;20035;-85
2024/02/07 07:36:41;;;;;;;152.13;83.70;;;;;;;9.74;80.93;100757.47;5113026;28;20475;-85
2024/02/07 07:39:36;;;;;;;116.40;63.37;;;;;;;9.78;82.00;100755.75;5109068;28;20039;-85
2024/02/07 07:42:31;;;;;;;157.17;88.90;;;;;;;10.04;80.75;100753.22;5117535;28;20032;-85
2024/02/07 07:45:25;;;;;;;131.13;69.43;;;;;;;10.31;79.05;100752.28;5125867;28;20650;-83
2024/02/07 07:48:20;;;;;;;162.40;87.33;;;;;;;10.52;78.35;100764.19;5122777;28;20293;-85
2024/02/07 07:51:15;;;;;;;124.95;67.97;;;;;;;10.59;76.88;100756.41;5112532;28;20047;-84
2024/02/07 07:54:07;;;;;;;168.70;86.93;;;;;;;10.60;77.10;100747.94;5109665;28;20047;-85
2024/02/07 07:56:59;;;;;;;162.35;85.60;;;;;;;10.46;78.58;100752.69;5111886;28;20681;-85
2024/02/07 07:59:53;;;;;;;149.10;82.82;;;;;;;10.60;77.99;100752.56;5118792;28;20039;-84
2024/02/07 08:02:48;;;;;;;166.20;90.13;;;;;;;10.46;78.03;100751.88;5112753;28;20419;-85
2024/02/07 08:05:39;;;;;;;157.98;87.68;;;;;;;10.22;80.28;100755.72;5108037;28;20301;-83
2024/02/07 08:08:29;;;;;;;157.85;86.55;;;;;;;10.30;80.08;100748.75;5105817;28;20040;-86
2024/02/07 08:11:19;;;;;;;168.10;87.50;;;;;;;10.23;79.76;100748.38;5116949;28;20028;-86
2024/02/07 08:14:10;;;;;;;161.88;85.20;;;;;;;10.22;80.36;100744.06;5112140;28;20048;-84
2024/02/07 08:17:02;;;;;;;166.98;88.35;;;;;;;10.27;80.54;100752.88;5113897;28;20043;-83
2024/02/07 08:19:54;;;;;;;174.88;93.60;;;;;;;10.11;80.93;100753.56;5114670;28;20039;-85
2024/02/07 08:22:47;;;;;;;170.50;92.60;;;;;;;10.39;79.08;100755.03;5114950;28;20036;-84
2024/02/07 08:25:34;;;;;;;168.55;89.30;;;;;;;10.33;79.84;100744.59;5114788;28;20036;-85
2024/02/07 08:28:26;;;;;;;166.93;92.35;;;;;;;10.68;77.84;100743.63;5105962;28;20039;-85
2024/02/07 08:31:18;;;;;;;162.93;90.22;;;;;;;10.72;79.00;100741.88;5111640;28;20492;-85
2024/02/07 08:34:07;;;;;;;157.90;89.60;;;;;;;10.81;77.92;100740.00;5098019;28;20039;-84
2024/02/07 08:36:59;;;;;;;167.07;91.05;;;;;;;10.59;77.50;100745.50;5106000;28;20432;-86
2024/02/07 08:39:55;;;;;;;163.68;91.63;;;;;;;10.71;78.68;100737.56;5113820;28;20040;-84
2024/02/07 08:42:44;;;;;;;132.40;72.38;;;;;;;11.02;75.61;100746.44;5114106;28;20504;-83
2024/02/07 08:45:34;;;;;;;165.00;93.03;;;;;;;10.67;77.86;100747.44;5105343;28;20413;-85
2024/02/07 08:48:26;;;;;;;169.20;91.00;;;;;;;10.88;77.50;100748.47;5113807;28;20043;-85
2024/02/07 08:51:19;;;;;;;175.43;95.53;;;;;;;10.60;78.16;100752.56;5113493;28;20036;-83
2024/02/07 08:54:11;;;;;;;178.60;92.72;;;;;;;10.62;78.00;100753.84;5088711;28;20040;-83
2024/02/07 08:57:04;;;;;;;173.77;94.63;;;;;;;10.92;77.42;100749.44;5107538;28;20036;-83
2024/02/07 08:59:56;;;;;;;185.35;101.35;;;;;;;10.54;77.61;100742.94;5101001;28;20036;-84
2024/02/07 09:02:49;;;;;;;189.75;100.07;;;;;;;10.55;78.87;100741.81;5113284;28;20040;-84
2024/02/07 09:05:34;;;;;;;215.23;104.57;;;;;;;10.44;80.42;100738.59;5109373;28;20069;-83
2024/02/07 09:08:23;;;;;;;171.68;91.95;;;;;;;10.83;77.74;100742.38;5113330;28;20496;-83
2024/02/07 09:11:15;;;;;;;170.65;94.07;;;;;;;11.24;75.87;100744.72;5108957;28;20409;-84
2024/02/07 09:14:07;;;;;;;171.25;93.57;;;;;;;11.64;73.48;100743.44;5112577;28;20036;-83
2024/02/07 09:16:59;;;;;;;156.38;89.75;;;;;;;11.90;72.64;100744.25;5112489;28;20047;-84
2024/02/07 09:19:51;;;;;;;158.52;90.63;;;;;;;11.98;72.54;100746.16;5112855;28;20035;-83
2024/02/07 09:22:44;;;;;;;153.55;85.25;;;;;;;12.13;70.02;100742.13;5113193;28;20043;-82
2024/02/07 09:25:36;;;;;;;158.07;86.45;;;;;;;12.49;70.27;100732.69;5090884;28;20036;-82
2024/02/07 09:28:20;;;;;;;157.40;88.75;;;;;;;12.61;68.57;100744.50;5091488;28;20028;-82
2024/02/07 09:31:09;;;;;;;117.93;68.35;;;;;;;13.17;67.38;100743.25;5093770;28;20048;-85
2024/02/07 09:34:01;;;;;;;150.63;83.90;;;;;;;12.60;68.07;100737.44;5094149;28;20044;-84
2024/02/07 09:36:50;;;;;;;158.77;86.63;;;;;;;12.79;67.40;100731.59;5107413;28;20047;-85
2024/02/07 09:39:42;;;;;;;149.55;81.70;;;;;;;12.03;70.63;100733.50;5099485;28;20039;-83
2024/02/07 09:42:37;;;;;;;154.68;87.22;;;;;;;11.99;71.08;100734.13;5096188;28;20032;-87
2024/02/07 09:45:34;;;;;;;160.32;88.25;;;;;;;12.18;71.62;100728.31;5098222;28;20039;-89
2024/02/07 09:48:29;;;;;;;145.95;85.20;;;;;;;12.04;70.05;100729.66;5090115;28;20036;-82
2024/02/07 09:51:23;;;;;;;142.00;83.07;;;;;;;12.04;72.17;100730.41;5096111;28;20032;-80
2024/02/07 09:54:16;;;;;;;148.68;85.22;;;;;;;12.34;69.24;100728.59;5097438;28;20039;-80
2024/02/07 09:57:08;;;;;;;173.02;89.32;;;;;;;12.68;68.72;100735.81;5096389;28;20032;-83
2024/02/07 09:59:55;;;;;;;169.20;87.65;;;;;;;13.04;67.25;100732.56;5108083;28;20031;-81
2024/02/07 10:02:50;;;;;;;150.57;88.13;;;;;;;12.69;69.38;100734.69;5113926;28;20039;-84
2024/02/07 10:05:52;;;;;;;159.80;84.72;;;;;;;12.97;68.33;100730.34;5098174;28;20040;-82
2024/02/07 10:08:47;;;;;;;162.77;91.43;;;;;;;12.67;68.54;100720.56;5100288;28;20039;-81
2024/02/07 10:11:42;;;;;;;176.02;93.25;;;;;;;13.75;66.11;100721.59;5107928;28;20052;-78
2024/02/07 10:14:34;;;;;;;163.63;85.57;;;;;;;14.53;62.72;100716.88;5102725;28;20508;-78
2024/02/07 10:17:29;;;;;;;175.32;89.65;;;;;;;14.54;61.74;100716.53;5099524;28;20497;-78
2024/02/07 10:20:24;;;;;;;155.70;83.82;;;;;;;14.81;61.27;100723.28;5117356;28;20032;-79
2024/02/07 10:23:18;;;;;;;156.05;82.80;;;;;;;15.48;58.11;100712.75;5102603;28;20036;-80
2024/02/07 10:26:13;;;;;;;142.05;80.35;;;;;;;16.03;57.23;100718.25;5099218;28;20036;-80
2024/02/07 10:29:14;;;;;;;116.37;65.90;;;;;;;16.12;55.77;100720.81;5113531;28;20047;-78
2024/02/07 10:32:08;;;;;;;144.45;84.50;;;;;;;18.65;49.96;100712.88;5113548;28;20277;-79
2024/02/07 10:35:03;;;;;;;143.60;80.43;;;;;;;19.67;46.39;100715.50;5097762;28;20500;-77
2024/02/07 10:37:57;;;;;;;136.20;76.93;;;;;;;20.33;44.05;100711.06;5103910;28;20044;-77
2024/02/07 10:40:52;;;;;;;123.60;75.28;;;;;;;23.39;37.55;100714.34;5115708;28;20277;-78
2024/02/07 10:43:47;;;;;;;135.95;74.82;;;;;;;23.91;35.65;100709.75;5107553;28;20043;-78
2024/02/07 10:46:39;;;;;;;127.65;74.32;;;;;;;21.73;39.49;100698.50;5089623;28;20040;-79
2024/02/07 10:49:33;;;;;;;129.38;77.50;;;;;;;19.10;45.67;100691.88;5092531;28;20039;-80
2024/02/07 10:52:25;;;;;;;132.40;78.03;;;;;;;16.34;52.91;100694.72;5083014;28;20040;-78
2024/02/07 10:55:19;;;;;;;141.00;83.93;;;;;;;16.54;53.73;100690.91;5086998;28;20036;-78
2024/02/07 10:58:13;;;;;;;135.05;80.88;;;;;;;16.68;53.68;100678.34;5100581;28;20036;-77
2024/02/07 11:01:00;;;;;;;152.70;80.70;;;;;;;18.65;49.22;100676.28;5087483;28;20040;-78
2024/02/07 11:03:53;;;;;;;128.70;76.05;;;;;;;19.56;45.85;100679.50;5103143;28;20039;-79
2024/02/07 11:06:43;;;;;;;131.85;76.32;;;;;;;19.30;45.79;100671.25;5093682;28;20044;-80
2024/02/07 11:09:36;;;;;;;127.60;73.13;;;;;;;18.76;46.13;100664.25;5083167;28;20505;-78
2024/02/07 11:12:31;;;;;;;125.57;74.15;;;;;;;17.25;50.88;100648.56;5087964;28;20040;-78
2024/02/07 11:15:25;;;;;;;95.78;54.88;;;;;;;19.57;45.49;100653.50;5101788;28;20048;-79
2024/02/07 11:18:23;;;;;;;150.85;73.72;;;;;;;19.73;44.46;100638.69;5079195;28;20036;-78
2024/02/07 11:21:17;;;;;;;129.80;74.57;;;;;;;20.22;44.58;100641.09;5100015;28;20035;-77
2024/02/07 11:24:12;;;;;;;123.65;76.35;;;;;;;21.77;40.87;100639.19;5095207;28;20040;-80
2024/02/07 11:27:07;;;;;;;115.93;70.82;;;;;;;23.37;37.37;100641.78;5110685;28;20052;-82
2024/02/07 11:30:02;;;;;;;112.68;69.07;;;;;;;23.70;36.50;100632.13;5100475;28;20044;-83
2024/02/07 11:32:52;;;;;;;;;;;;;;;25.01;33.46;100628.22;5107748;28;20039;-83
2024/02/07 11:35:46;;;;;;;111.88;70.95;;;;;;;24.51;33.64;100627.94;5107123;28;19916;-83
2024/02/07 11:38:47;;;;;;;116.63;72.63;;;;;;;22.61;37.36;100625.75;5105970;28;20039;-83
2024/02/07 11:41:47;;;;;;;112.43;69.13;;;;;;;21.85;38.81;100615.06;5094326;28;20036;-84
2024/02/07 11:44:52;;;;;;;114.68;72.25;;;;;;;19.63;44.05;100616.13;5102769;28;20043;-82
2024/02/07 11:47:44;;;;;;;119.38;73.68;;;;;;;19.98;43.64;100612.13;5108910;28;20416;-83
2024/02/07 11:50:36;;;;;;;;;;;;;;;18.80;46.81;100610.00;5094332;28;20036;-84
2024/02/07 11:53:32;;;;;;;123.68;75.03;;;;;;;19.22;46.09;100606.97;5092947;28;19916;-84
2024/02/07 11:56:27;;;;;;;117.75;75.38;;;;;;;19.12;44.86;100593.88;5103635;28;20043;-84
2024/02/07 11:59:17;;;;;;;126.70;74.68;;;;;;;19.97;44.28;100588.44;5100101;28;20489;-84
2024/02/07 12:02:09;;;;;;;120.85;74.05;;;;;;;20.07;43.65;100587.75;5109276;28;20405;-83
2024/02/07 12:05:03;;;;;;;136.30;75.85;;;;;;;21.08;41.11;100585.22;5104071;28;20036;-82
2024/02/07 12:07:58;;;;;;;116.32;73.07;;;;;;;22.47;38.46;100575.91;5102185;28;20044;-82
2024/02/07 12:10:50;;;;;;;116.35;72.05;;;;;;;23.83;36.05;100581.25;5100623;28;20052;-83
2024/02/07 12:13:41;;;;;;;117.13;73.90;;;;;;;25.13;33.33;100574.78;5109792;28;20036;-83
2024/02/07 12:16:35;;;;;;;112.82;73.90;;;;;;;24.28;33.38;100568.16;5099552;28;20402;-83
2024/02/07 12:19:30;;;;;;;112.32;70.40;;;;;;;23.48;35.44;100566.81;5091079;28;20040;-83
2024/02/07 12:22:22;;;;;;;121.15;71.22;;;;;;;22.44;37.37;100562.84;5092629;28;20032;-83
2024/02/07 12:25:22;;;;;;;108.18;68.20;;;;;;;18.32;46.36;100556.56;5101913;28;20031;-82
2024/02/07 12:28:17;;;;;;;103.38;68.03;;;;;;;18.06;48.21;100551.06;5116068;28;20036;-85
2024/02/07 12:31:09;;;;;;;109.75;69.10;;;;;;;17.72;49.41;100539.13;5102140;28;20400;-84
2024/02/07 12:34:01;;;;;;;115.22;69.90;;;;;;;16.49;53.73;100537.44;5112037;28;20036;-82
2024/02/07 12:36:53;;;;;;;113.40;70.80;;;;;;;16.60;55.26;100538.50;5105931;28;20496;-85
2024/02/07 12:39:48;;;;;;;121.68;73.35;;;;;;;17.29;51.60;100525.75;5114319;28;20051;-82
2024/02/07 12:42:43;;;;;;;112.47;71.70;;;;;;;18.09;49.81;100513.72;5109574;28;20036;-86
2024/02/07 12:45:38;;;;;;;113.15;68.72;;;;;;;18.51;48.72;100517.09;5100002;28;20495;-85
2024/02/07 12:48:33;;;;;;;112.25;70.32;;;;;;;20.15;45.82;100506.56;5121731;28;20043;-86
2024/02/07 12:51:25;;;;;;;;;;;;;;;22.47;39.28;100504.63;5106886;28;20043;-85
2024/02/07 12:54:17;;;;;;;103.68;64.50;;;;;;;21.00;41.63;100498.69;5104069;28;19916;-84
2024/02/07 12:57:21;;;;;;;101.30;59.28;;;;;;;19.93;43.67;100494.56;5098241;28;20035;-85
2024/02/07 13:00:17;;;;;;;106.60;64.70;;;;;;;19.58;45.21;100497.06;5102355;28;20040;-83
2024/02/07 13:03:11;;;;;;;98.43;62.88;;;;;;;19.79;44.78;100482.66;5104911;28;20035;-85
2024/02/07 13:06:04;;;;;;;100.55;63.38;;;;;;;19.26;45.83;100474.66;5113522;28;20039;-86
2024/02/07 13:08:58;;;;;;;106.97;65.00;;;;;;;18.50;48.47;100484.41;5115644;28;20039;-83
2024/02/07 13:11:52;;;;;;;97.97;62.88;;;;;;;18.13;49.14;100473.31;5099133;28;20047;-85
2024/02/07 13:14:47;;;;;;;94.80;59.00;;;;;;;17.26;51.38;100471.50;5085015;28;20416;-83
2024/02/07 13:17:40;;;;;;;84.45;47.85;;;;;;;17.14;51.83;100466.19;5092616;28;20043;-83
2024/02/07 13:20:39;;;;;;;93.03;59.88;;;;;;;17.10;52.44;100460.63;5099300;28;20032;-85
2024/02/07 13:23:34;;;;;;;89.32;55.55;;;;;;;16.60;53.98;100456.94;5095683;28;20048;-85
2024/02/07 13:26:29;;;;;;;103.93;58.22;;;;;;;15.75;57.19;100462.47;5101562;28;20036;-83
2024/02/07 13:29:23;;;;;;;100.47;60.38;;;;;;;15.90;56.09;100450.69;5092160;28;20036;-82
2024/02/07 13:32:21;;;;;;;108.13;61.17;;;;;;;15.68;57.14;100445.88;5101701;28;20036;-83
2024/02/07 13:35:16;;;;;;;102.50;58.88;;;;;;;15.83;57.21;100439.56;5122044;28;20477;-84
2024/02/07 13:38:11;;;;;;;70.82;42.75;;;;;;;15.72;57.02;100438.53;5107751;28;20040;-86
2024/02/07 13:41:06;;;;;;;100.07;58.13;;;;;;;15.76;56.95;100428.44;5111631;28;20035;-82
2024/02/07 13:43:58;;;;;;;98.57;59.25;;;;;;;15.43;58.09;100437.03;5104576;28;20040;-86
2024/02/07 13:46:52;;;;;;;108.93;63.95;;;;;;;15.17;59.39;100429.34;5121048;28;20043;-83
2024/02/07 13:49:47;;;;;;;113.82;67.10;;;;;;;15.40;58.54;100419.34;5113397;28;20040;-82
2024/02/07 13:52:41;;;;;;;117.85;66.93;;;;;;;16.03;57.34;100432.16;5111413;28;20039;-82
2024/02/07 13:55:31;;;;;;;119.57;67.87;;;;;;;15.44;58.03;100427.63;5108636;28;20028;-81
2024/02/07 13:58:25;;;;;;;115.85;68.43;;;;;;;15.54;57.99;100415.38;5102732;28;20032;-83
2024/02/07 14:01:20;;;;;;;116.38;67.47;;;;;;;15.39;58.17;100414.19;5112531;28;20411;-86
2024/02/07 14:04:14;;;;;;;102.43;57.00;;;;;;;15.04;59.65;100414.13;5091794;28;20032;-83
2024/02/07 14:07:09;;;;;;;116.88;69.88;;;;;;;15.16;59.17;100410.50;5101464;28;20040;-83
2024/02/07 14:10:04;;;;;;;119.18;70.75;;;;;;;14.99;60.22;100401.47;5100600;28;20586;-81
2024/02/07 14:12:58;;;;;;;125.00;71.90;;;;;;;14.77;60.71;100409.50;5106825;28;20405;-84